Archival Weather

Chicago O'Hare International

Chicago, Illinois (KORD)

Report from: Thursday, June 23, 2022 9:51 PM CDT
Current time: Tuesday, August 16, 2022 1:10 AM CDT

Current weather
Weather history
Weather forecast

Temperature22.2°C (72.0°F)
Dew point8.3°C (46.9°F)
Winds 5 kts (2.6 m/s, 5.8 mph) Southeast (130°)
Visibility10 mi. (16.1 km)
Clouds Sky clear
Altimeter30.00 in.Hg (1016 mB)
Relative humidity41 %
Density altitude907 ft. (277 m)
Sea-level pressure101.6 kPa (1016 mB, 29.99 in.Hg)
Remarks Automated weather observing station with precipitation discriminator
Pressure falling, then rising
Flight conditions Visual Meteorological Conditions
Raw dataKORD 240251Z 13005KT 10SM CLR 22/08 A3000 RMK AO2 SLP155 T02220083 55000
An error has occurred. This application may no longer respond until reloaded. Reload 🗙